Time;durP1;ratioP1;P1;durP2;ratioP2;P2;SDS_P1;SDS_P2;PMS_P1;PMS_P2;Temp;Humidity;BMP_temperature;BMP_pressure;BME280_temperature;BME280_humidity;BME280_pressure;Samples;Min_cycle;Max_cycle;Signal;HPM_P1;HPM_P2
2024/01/13 00:00:51;;;;;;;0.47;0.47;;;;;;;;;;5039755;28;20149;-79
2024/01/13 00:03:17;;;;;;;1.20;0.98;;;;;;;;;;5042665;28;20499;-80
2024/01/13 00:05:42;;;;;;;3.15;1.38;;;;;;;;;;5036152;28;20037;-80
2024/01/13 00:08:07;;;;;;;3.92;2.53;;;;;;;;;;5038032;28;20033;-79
2024/01/13 00:10:34;;;;;;;0.32;0.32;;;;;;;;;;5030719;28;21585;-83
2024/01/13 00:13:00;;;;;;;2.58;1.67;;;;;;;;;;5038800;28;20029;-80
2024/01/13 00:15:25;;;;;;;2.95;2.40;;;;;;;;;;5034081;28;20022;-81
2024/01/13 00:17:50;;;;;;;1.45;1.35;;;;;;;;;;5034134;28;20408;-79
2024/01/13 00:20:16;;;;;;;0.60;0.60;;;;;;;;;;5028382;28;20025;-79
2024/01/13 00:22:47;;;;;;;1.23;1.23;;;;;;;;;;5034941;28;20033;-81
2024/01/13 00:25:14;;;;;;;0.88;0.60;;;;;;;;;;5031311;28;20025;-79
2024/01/13 00:27:42;;;;;;;2.08;1.88;;;;;;;;;;5032528;28;20047;-79
2024/01/13 00:30:08;;;;;;;1.83;1.55;;;;;;;;;;5032286;28;20103;-79
2024/01/13 00:32:34;;;;;;;0.20;0.20;;;;;;;;;;5031649;28;20520;-80
2024/01/13 00:34:59;;;;;;;0.20;0.20;;;;;;;;;;5030092;28;20037;-80
2024/01/13 00:37:25;;;;;;;2.88;1.00;;;;;;;;;;5032081;28;20022;-78
2024/01/13 00:39:51;;;;;;;0.60;0.60;;;;;;;;;;5027391;28;20049;-79
2024/01/13 00:42:16;;;;;;;1.38;1.27;;;;;;;;;;5020089;28;20083;-82
2024/01/13 00:44:41;;;;;;;0.95;0.95;;;;;;;;;;5020418;28;20033;-80
2024/01/13 00:47:07;;;;;;;1.75;1.65;;;;;;;;;;5025195;28;20485;-79
2024/01/13 00:49:32;;;;;;;1.40;0.65;;;;;;;;;;5020474;28;20017;-81
2024/01/13 00:51:57;;;;;;;2.90;1.92;;;;;;;;;;5011476;28;20025;-81
2024/01/13 00:54:23;;;;;;;1.17;1.00;;;;;;;;;;5019212;28;20482;-81
2024/01/13 00:56:49;;;;;;;3.63;2.22;;;;;;;;;;5013542;28;20033;-80
2024/01/13 00:59:14;;;;;;;1.10;0.98;;;;;;;;;;5022712;28;20067;-82
2024/01/13 01:01:40;;;;;;;2.67;1.80;;;;;;;;;;5021009;28;20474;-78
2024/01/13 01:04:05;;;;;;;1.05;1.05;;;;;;;;;;5017650;28;20025;-78
2024/01/13 01:06:30;;;;;;;1.55;1.45;;;;;;;;;;5022810;28;20029;-80
2024/01/13 01:08:56;;;;;;;0.30;0.30;;;;;;;;;;5018558;28;20017;-80
2024/01/13 01:11:21;;;;;;;1.00;1.00;;;;;;;;;;5014711;28;20025;-78
2024/01/13 01:13:47;;;;;;;1.60;1.50;;;;;;;;;;5014904;28;20068;-78
2024/01/13 01:16:13;;;;;;;1.30;1.23;;;;;;;;;;5022915;28;20036;-84
2024/01/13 01:18:39;;;;;;;1.25;1.23;;;;;;;;;;5020783;28;20025;-79
2024/01/13 01:21:04;;;;;;;1.75;1.65;;;;;;;;;;5016834;28;20029;-77
2024/01/13 01:23:30;;;;;;;1.67;1.58;;;;;;;;;;5012417;28;20065;-81
2024/01/13 01:25:55;;;;;;;0.45;0.45;;;;;;;;;;5017542;28;20072;-81
2024/01/13 01:28:22;;;;;;;1.85;1.17;;;;;;;;;;5011492;28;20029;-79
2024/01/13 01:30:47;;;;;;;1.10;1.08;;;;;;;;;;5021637;28;20025;-81
2024/01/13 01:33:13;;;;;;;3.10;2.10;;;;;;;;;;5024624;28;20063;-79
2024/01/13 01:35:38;;;;;;;1.10;0.95;;;;;;;;;;5021472;28;20036;-80
2024/01/13 01:38:04;;;;;;;2.20;1.98;;;;;;;;;;5020335;28;20478;-80
2024/01/13 01:40:31;;;;;;;4.68;1.83;;;;;;;;;;5024764;28;20077;-80
2024/01/13 01:42:56;;;;;;;1.65;1.05;;;;;;;;;;5020246;28;20083;-79
2024/01/13 01:45:23;;;;;;;1.98;1.55;;;;;;;;;;5020227;28;20453;-79
2024/01/13 01:47:49;;;;;;;0.65;0.65;;;;;;;;;;5021024;28;20029;-80
2024/01/13 01:50:15;;;;;;;1.70;1.60;;;;;;;;;;5020824;28;20021;-82
2024/01/13 01:52:40;;;;;;;2.40;2.00;;;;;;;;;;5019258;28;20084;-78
2024/01/13 01:55:07;;;;;;;7.78;4.88;;;;;;;;;;5022577;28;20033;-78
2024/01/13 01:57:37;;;;;;;1.23;1.23;;;;;;;;;;5023721;28;20064;-78
2024/01/13 02:00:04;;;;;;;1.33;1.25;;;;;;;;;;5012815;28;20512;-79
2024/01/13 02:02:29;;;;;;;2.05;1.23;;;;;;;;;;5022670;28;20025;-81
2024/01/13 02:04:56;;;;;;;1.92;1.17;;;;;;;;;;5023582;28;20029;-80
2024/01/13 02:07:21;;;;;;;4.05;1.75;;;;;;;;;;5022436;28;20025;-79
2024/01/13 02:09:47;;;;;;;0.25;0.25;;;;;;;;;;5023460;28;20377;-80
2024/01/13 02:12:12;;;;;;;1.48;1.38;;;;;;;;;;5022475;28;20025;-81
2024/01/13 02:14:38;;;;;;;1.60;1.30;;;;;;;;;;5023063;28;20025;-79
2024/01/13 02:17:04;;;;;;;0.65;0.65;;;;;;;;;;5019981;28;20033;-78
2024/01/13 02:19:32;;;;;;;0.60;0.60;;;;;;;;;;5019349;28;20159;-80
2024/01/13 02:21:59;;;;;;;0.80;0.80;;;;;;;;;;5016390;28;20492;-81
2024/01/13 02:24:24;;;;;;;1.42;1.25;;;;;;;;;;5020401;28;20474;-79
2024/01/13 02:26:50;;;;;;;10.63;3.10;;;;;;;;;;5023270;28;20029;-81
2024/01/13 02:29:15;;;;;;;3.70;2.85;;;;;;;;;;5019497;28;20026;-81
2024/01/13 02:31:40;;;;;;;1.60;1.35;;;;;;;;;;5019009;28;20029;-81
2024/01/13 02:34:06;;;;;;;0.77;0.77;;;;;;;;;;5018000;28;20077;-80
2024/01/13 02:36:31;;;;;;;3.75;0.90;;;;;;;;;;5018914;28;20095;-81
2024/01/13 02:38:56;;;;;;;1.58;1.48;;;;;;;;;;5020590;28;20028;-78
2024/01/13 02:41:22;;;;;;;0.95;0.95;;;;;;;;;;5023792;28;20036;-81
2024/01/13 02:43:47;;;;;;;0.75;0.75;;;;;;;;;;5022965;28;20037;-81
2024/01/13 02:46:13;;;;;;;1.83;1.30;;;;;;;;;;5022373;28;20025;-80
2024/01/13 02:48:45;;;;;;;2.22;1.75;;;;;;;;;;5022057;28;20032;-80
2024/01/13 02:51:15;;;;;;;1.02;1.02;;;;;;;;;;5020554;28;20033;-79
2024/01/13 02:53:40;;;;;;;0.45;0.45;;;;;;;;;;5020992;28;20036;-80
2024/01/13 02:56:06;;;;;;;1.50;1.45;;;;;;;;;;5020914;28;20030;-80
2024/01/13 02:58:32;;;;;;;1.75;1.65;;;;;;;;;;5019869;28;20129;-81
2024/01/13 03:00:57;;;;;;;5.75;1.63;;;;;;;;;;5017812;28;20338;-80
2024/01/13 03:03:22;;;;;;;5.70;2.75;;;;;;;;;;5022468;28;20087;-82
2024/01/13 03:05:48;;;;;;;1.15;1.15;;;;;;;;;;5022208;28;20049;-79
2024/01/13 03:08:13;;;;;;;1.13;0.85;;;;;;;;;;5021531;28;20056;-80
2024/01/13 03:10:38;;;;;;;0.75;0.75;;;;;;;;;;5014311;28;20025;-79
2024/01/13 03:13:04;;;;;;;2.88;2.00;;;;;;;;;;5020183;28;20029;-78
2024/01/13 03:15:29;;;;;;;1.25;1.23;;;;;;;;;;5018889;28;20033;-80
2024/01/13 03:17:55;;;;;;;3.50;3.20;;;;;;;;;;5021600;28;20495;-77
2024/01/13 03:20:20;;;;;;;1.35;0.65;;;;;;;;;;5021774;28;20057;-79
2024/01/13 03:22:45;;;;;;;3.58;3.33;;;;;;;;;;5015756;28;20026;-81
2024/01/13 03:25:11;;;;;;;0.40;0.40;;;;;;;;;;5018179;28;20041;-80
2024/01/13 03:27:36;;;;;;;1.92;1.77;;;;;;;;;;5011824;28;20034;-79
2024/01/13 03:30:03;;;;;;;0.98;0.68;;;;;;;;;;5018908;28;20042;-80
2024/01/13 03:32:28;;;;;;;0.93;0.93;;;;;;;;;;5022015;28;20041;-79
2024/01/13 03:34:54;;;;;;;1.85;0.93;;;;;;;;;;5021407;28;20416;-79
2024/01/13 03:37:19;;;;;;;0.55;0.52;;;;;;;;;;5020914;28;20026;-83
2024/01/13 03:39:45;;;;;;;0.40;0.40;;;;;;;;;;5021001;28;20042;-80
2024/01/13 03:42:10;;;;;;;1.20;1.13;;;;;;;;;;5021039;28;20092;-80
2024/01/13 03:44:35;;;;;;;0.38;0.38;;;;;;;;;;5021823;28;20476;-77
2024/01/13 03:47:01;;;;;;;1.73;1.63;;;;;;;;;;5020216;28;20053;-80
2024/01/13 03:49:26;;;;;;;0.63;0.50;;;;;;;;;;5019235;28;20019;-80
2024/01/13 03:51:52;;;;;;;3.40;2.17;;;;;;;;;;5025945;28;20049;-78
2024/01/13 03:54:17;;;;;;;10.07;2.90;;;;;;;;;;5017176;28;20021;-81
2024/01/13 03:56:42;;;;;;;2.70;2.50;;;;;;;;;;5021251;28;20033;-81
2024/01/13 03:59:09;;;;;;;3.40;2.00;;;;;;;;;;5017229;28;20528;-80
2024/01/13 04:01:34;;;;;;;1.60;1.50;;;;;;;;;;5020153;28;20063;-79
2024/01/13 04:04:00;;;;;;;1.02;1.02;;;;;;;;;;5023060;28;20069;-79
2024/01/13 04:06:25;;;;;;;1.13;1.00;;;;;;;;;;5013775;28;20030;-79
2024/01/13 04:08:51;;;;;;;1.65;1.52;;;;;;;;;;5017778;28;20128;-80
2024/01/13 04:11:16;;;;;;;2.45;1.80;;;;;;;;;;5017957;28;20044;-79
2024/01/13 04:13:41;;;;;;;2.10;1.40;;;;;;;;;;5019978;28;20546;-78
2024/01/13 04:16:07;;;;;;;0.82;0.82;;;;;;;;;;5015711;28;20039;-78
2024/01/13 04:18:33;;;;;;;1.30;1.30;;;;;;;;;;5022674;28;20493;-79
2024/01/13 04:20:58;;;;;;;2.28;1.60;;;;;;;;;;5019145;28;20040;-79
2024/01/13 04:23:24;;;;;;;3.33;1.77;;;;;;;;;;5026836;28;20029;-79
2024/01/13 04:25:49;;;;;;;0.75;0.75;;;;;;;;;;5023090;28;20041;-80
2024/01/13 04:28:15;;;;;;;3.08;2.72;;;;;;;;;;5021198;28;20525;-78
2024/01/13 04:30:40;;;;;;;1.67;1.58;;;;;;;;;;5021699;28;20033;-79
2024/01/13 04:33:05;;;;;;;3.85;1.50;;;;;;;;;;5024157;28;20041;-80
2024/01/13 04:35:31;;;;;;;1.95;1.58;;;;;;;;;;5020888;28;20116;-80
2024/01/13 04:37:56;;;;;;;4.32;3.92;;;;;;;;;;5023006;28;20721;-80
2024/01/13 04:40:22;;;;;;;2.38;1.65;;;;;;;;;;5024420;28;20484;-81
2024/01/13 04:42:48;;;;;;;2.15;1.15;;;;;;;;;;5022525;28;20029;-82
2024/01/13 04:45:13;;;;;;;1.58;1.45;;;;;;;;;;5018776;28;20033;-80
2024/01/13 04:47:39;;;;;;;0.38;0.38;;;;;;;;;;5026125;28;20029;-80
2024/01/13 04:50:05;;;;;;;3.22;1.60;;;;;;;;;;5022657;28;20022;-81
2024/01/13 04:52:30;;;;;;;3.65;1.98;;;;;;;;;;5023486;28;20032;-79
2024/01/13 04:54:57;;;;;;;2.38;1.73;;;;;;;;;;5022836;28;20037;-81
2024/01/13 04:57:22;;;;;;;5.40;3.78;;;;;;;;;;5013951;28;20037;-79
2024/01/13 04:59:48;;;;;;;2.78;2.25;;;;;;;;;;5015883;28;20083;-78
2024/01/13 05:02:13;;;;;;;2.40;2.17;;;;;;;;;;5017364;28;20029;-79
2024/01/13 05:04:39;;;;;;;2.13;1.13;;;;;;;;;;5017776;28;20022;-82
2024/01/13 05:07:05;;;;;;;3.53;3.25;;;;;;;;;;5020476;28;20949;-81
2024/01/13 05:09:30;;;;;;;0.88;0.88;;;;;;;;;;5031344;28;20104;-80
2024/01/13 05:11:55;;;;;;;1.60;0.98;;;;;;;;;;5030759;28;20033;-82
2024/01/13 05:14:21;;;;;;;4.28;3.72;;;;;;;;;;5021354;28;20029;-81
2024/01/13 05:16:46;;;;;;;1.33;1.23;;;;;;;;;;5022452;28;20362;-80
2024/01/13 05:19:12;;;;;;;0.65;0.65;;;;;;;;;;5013012;28;20029;-83
2024/01/13 05:21:37;;;;;;;2.90;2.70;;;;;;;;;;5025844;28;20409;-80
2024/01/13 05:24:03;;;;;;;0.90;0.88;;;;;;;;;;5015259;28;20060;-79
2024/01/13 05:26:29;;;;;;;2.78;2.67;;;;;;;;;;5012437;28;20037;-79
2024/01/13 05:28:54;;;;;;;1.30;1.25;;;;;;;;;;5026468;28;20075;-79
2024/01/13 05:31:19;;;;;;;0.43;0.43;;;;;;;;;;5019712;28;20049;-79
2024/01/13 05:33:45;;;;;;;1.10;1.10;;;;;;;;;;5020773;28;20039;-79
2024/01/13 05:36:10;;;;;;;0.95;0.95;;;;;;;;;;5022693;28;20674;-78
2024/01/13 05:38:36;;;;;;;0.75;0.75;;;;;;;;;;5026495;28;20113;-77
2024/01/13 05:41:01;;;;;;;5.80;2.38;;;;;;;;;;5023643;28;20050;-78
2024/01/13 05:43:26;;;;;;;3.40;1.88;;;;;;;;;;5024546;28;20037;-79
2024/01/13 05:45:52;;;;;;;0.45;0.45;;;;;;;;;;5027247;28;20025;-79
2024/01/13 05:48:18;;;;;;;1.33;1.25;;;;;;;;;;5022937;28;20545;-78
2024/01/13 05:50:43;;;;;;;5.43;3.50;;;;;;;;;;5023663;28;20031;-79
2024/01/13 05:53:09;;;;;;;4.57;2.15;;;;;;;;;;5022301;28;20029;-77
2024/01/13 05:55:34;;;;;;;1.00;1.00;;;;;;;;;;5024157;28;20018;-79
2024/01/13 05:57:59;;;;;;;1.52;1.42;;;;;;;;;;5023044;28;20057;-82
2024/01/13 06:00:25;;;;;;;1.52;1.42;;;;;;;;;;5024091;28;20057;-78
2024/01/13 06:02:50;;;;;;;1.58;1.48;;;;;;;;;;5029827;28;20033;-78
2024/01/13 06:05:16;;;;;;;0.50;0.50;;;;;;;;;;5027950;28;20032;-78
2024/01/13 06:07:42;;;;;;;1.55;1.45;;;;;;;;;;5029305;28;20033;-81
2024/01/13 06:10:08;;;;;;;1.02;1.02;;;;;;;;;;5026947;28;20462;-78
2024/01/13 06:12:33;;;;;;;1.25;0.98;;;;;;;;;;5028181;28;20029;-77
2024/01/13 06:14:59;;;;;;;1.77;1.67;;;;;;;;;;5021031;28;20040;-78
2024/01/13 06:17:24;;;;;;;1.02;0.98;;;;;;;;;;5025658;28;20409;-77
2024/01/13 06:19:49;;;;;;;3.83;3.45;;;;;;;;;;5024709;28;20029;-79
2024/01/13 06:22:15;;;;;;;2.90;2.60;;;;;;;;;;5028848;28;20018;-79
2024/01/13 06:24:40;;;;;;;3.50;1.10;;;;;;;;;;5023917;28;20080;-79
2024/01/13 06:27:06;;;;;;;1.95;1.35;;;;;;;;;;5027985;28;20021;-78
2024/01/13 06:29:31;;;;;;;0.30;0.30;;;;;;;;;;5025207;28;20020;-79
2024/01/13 06:31:57;;;;;;;2.42;2.00;;;;;;;;;;5021228;28;20113;-78
2024/01/13 06:34:22;;;;;;;1.45;1.35;;;;;;;;;;5023759;28;20057;-77
2024/01/13 06:36:48;;;;;;;2.78;1.65;;;;;;;;;;5020299;28;20033;-80
2024/01/13 06:39:13;;;;;;;1.30;1.17;;;;;;;;;;5023576;28;20061;-77
2024/01/13 06:41:38;;;;;;;0.40;0.40;;;;;;;;;;5026003;28;20029;-77
2024/01/13 06:44:04;;;;;;;3.30;2.72;;;;;;;;;;5020467;28;20041;-78
2024/01/13 06:46:29;;;;;;;0.85;0.85;;;;;;;;;;5024190;28;20103;-77
2024/01/13 06:48:55;;;;;;;2.78;2.35;;;;;;;;;;5022591;28;20122;-77
2024/01/13 06:51:20;;;;;;;0.60;0.60;;;;;;;;;;5022811;28;20083;-78
2024/01/13 06:53:46;;;;;;;1.65;1.55;;;;;;;;;;5019198;28;20061;-77
2024/01/13 06:56:11;;;;;;;1.75;1.63;;;;;;;;;;5016761;28;20393;-79
2024/01/13 06:58:37;;;;;;;1.15;0.98;;;;;;;;;;5023780;28;20029;-79
2024/01/13 07:01:02;;;;;;;3.80;0.98;;;;;;;;;;5020735;28;20029;-78
2024/01/13 07:03:27;;;;;;;1.23;1.15;;;;;;;;;;5024976;28;20432;-80
2024/01/13 07:05:53;;;;;;;1.38;1.27;;;;;;;;;;5006569;28;20022;-78
2024/01/13 07:08:18;;;;;;;1.88;1.52;;;;;;;;;;5010472;28;20658;-78
2024/01/13 07:10:44;;;;;;;0.85;0.55;;;;;;;;;;5012798;28;20414;-77
2024/01/13 07:13:09;;;;;;;1.65;1.55;;;;;;;;;;5013676;28;20380;-78
2024/01/13 07:15:34;;;;;;;1.02;0.88;;;;;;;;;;5007390;28;20491;-77
2024/01/13 07:18:00;;;;;;;0.65;0.65;;;;;;;;;;5010509;28;20026;-78
2024/01/13 07:20:26;;;;;;;3.00;2.20;;;;;;;;;;5007937;28;20424;-78
2024/01/13 07:22:52;;;;;;;3.30;1.58;;;;;;;;;;5014312;28;20057;-79
2024/01/13 07:25:18;;;;;;;1.60;1.50;;;;;;;;;;5012284;28;20064;-79
2024/01/13 07:27:43;;;;;;;2.10;1.60;;;;;;;;;;5014274;28;20052;-76
2024/01/13 07:30:09;;;;;;;0.55;0.50;;;;;;;;;;5014594;28;20029;-77
2024/01/13 07:32:34;;;;;;;3.13;2.58;;;;;;;;;;5012587;28;20030;-80
2024/01/13 07:35:00;;;;;;;2.00;1.85;;;;;;;;;;5006796;28;20057;-78
2024/01/13 07:37:25;;;;;;;0.38;0.38;;;;;;;;;;5012464;28;20025;-78
2024/01/13 07:39:51;;;;;;;6.57;1.75;;;;;;;;;;5011530;28;20390;-78
2024/01/13 07:42:17;;;;;;;1.27;0.75;;;;;;;;;;5018505;28;20457;-79
2024/01/13 07:44:43;;;;;;;7.25;2.70;;;;;;;;;;5024564;28;20147;-78
2024/01/13 07:47:09;;;;;;;2.05;1.23;;;;;;;;;;5015051;28;20156;-79
2024/01/13 07:49:34;;;;;;;1.92;1.27;;;;;;;;;;5012038;28;20144;-79
2024/01/13 07:52:00;;;;;;;7.63;4.55;;;;;;;;;;5026524;28;20048;-78
2024/01/13 07:54:25;;;;;;;2.55;2.35;;;;;;;;;;5025906;28;20033;-80
2024/01/13 07:56:52;;;;;;;0.60;0.60;;;;;;;;;;5029878;28;20030;-80
2024/01/13 07:59:17;;;;;;;2.35;1.17;;;;;;;;;;5030808;28;20032;-80
2024/01/13 08:01:44;;;;;;;2.08;1.77;;;;;;;;;;5029577;28;20029;-78
2024/01/13 08:04:09;;;;;;;4.82;2.17;;;;;;;;;;5024163;28;20393;-79
2024/01/13 08:06:35;;;;;;;1.20;1.17;;;;;;;;;;5027183;28;20029;-78
2024/01/13 08:09:03;;;;;;;1.63;1.48;;;;;;;;;;5023544;28;20036;-78
2024/01/13 08:11:28;;;;;;;0.30;0.30;;;;;;;;;;5018013;28;20071;-78
2024/01/13 08:13:54;;;;;;;1.85;1.73;;;;;;;;;;5020673;28;20053;-79
2024/01/13 08:16:20;;;;;;;0.80;0.80;;;;;;;;;;5027028;28;20461;-80
2024/01/13 08:18:45;;;;;;;2.28;1.83;;;;;;;;;;5024692;28;20042;-79
2024/01/13 08:21:10;;;;;;;3.00;1.00;;;;;;;;;;5017922;28;20049;-80
2024/01/13 08:23:36;;;;;;;1.02;1.00;;;;;;;;;;5013122;28;20030;-78
2024/01/13 08:26:02;;;;;;;1.23;1.00;;;;;;;;;;5009338;28;20025;-80
2024/01/13 08:28:28;;;;;;;2.45;1.10;;;;;;;;;;5025589;28;20025;-79
2024/01/13 08:30:54;;;;;;;2.60;1.30;;;;;;;;;;5020854;28;20021;-80
2024/01/13 08:33:19;;;;;;;5.32;2.25;;;;;;;;;;5021822;28;20037;-80
2024/01/13 08:35:45;;;;;;;1.25;1.15;;;;;;;;;;5026636;28;20060;-80
2024/01/13 08:38:11;;;;;;;1.27;1.17;;;;;;;;;;5030385;28;20159;-79
2024/01/13 08:40:36;;;;;;;1.25;1.15;;;;;;;;;;5021349;28;20057;-79
2024/01/13 08:43:03;;;;;;;1.88;1.77;;;;;;;;;;5019879;28;20029;-78
2024/01/13 08:45:33;;;;;;;0.40;0.40;;;;;;;;;;5028293;28;20091;-78
2024/01/13 08:47:59;;;;;;;1.40;1.30;;;;;;;;;;5029123;28;20025;-80
2024/01/13 08:50:25;;;;;;;3.88;1.38;;;;;;;;;;5030113;28;20546;-80
2024/01/13 08:52:54;;;;;;;1.17;1.17;;;;;;;;;;5027789;28;20033;-81
2024/01/13 08:55:20;;;;;;;3.95;1.25;;;;;;;;;;5029242;28;20057;-78
2024/01/13 08:57:46;;;;;;;1.17;1.00;;;;;;;;;;5025986;28;20061;-80
2024/01/13 09:00:12;;;;;;;2.38;1.52;;;;;;;;;;5030018;28;20532;-80
2024/01/13 09:02:39;;;;;;;1.05;0.80;;;;;;;;;;5029882;28;20112;-80
2024/01/13 09:05:05;;;;;;;0.82;0.82;;;;;;;;;;5029589;28;20029;-79
2024/01/13 09:07:31;;;;;;;2.17;1.75;;;;;;;;;;5027366;28;20025;-79
2024/01/13 09:09:57;;;;;;;0.25;0.25;;;;;;;;;;5027478;28;20070;-78
2024/01/13 09:12:22;;;;;;;2.05;1.52;;;;;;;;;;5028130;28;20498;-80
2024/01/13 09:14:48;;;;;;;1.88;1.00;;;;;;;;;;5028032;28;20025;-80
2024/01/13 09:17:13;;;;;;;1.45;0.90;;;;;;;;;;5026909;28;20044;-79
2024/01/13 09:19:38;;;;;;;2.05;1.38;;;;;;;;;;5029277;28;20052;-78
2024/01/13 09:22:04;;;;;;;1.98;1.65;;;;;;;;;;5027571;28;20038;-80
2024/01/13 09:24:29;;;;;;;4.32;1.65;;;;;;;;;;5027225;28;20023;-81
2024/01/13 09:26:55;;;;;;;0.40;0.40;;;;;;;;;;5028219;28;20071;-80
2024/01/13 09:29:21;;;;;;;0.38;0.38;;;;;;;;;;5032083;28;20013;-80
2024/01/13 09:31:47;;;;;;;2.70;2.50;;;;;;;;;;5022547;28;20358;-80
2024/01/13 09:34:14;;;;;;;3.85;1.75;;;;;;;;;;5029511;28;20087;-81
2024/01/13 09:36:40;;;;;;;0.88;0.88;;;;;;;;;;5028377;28;20029;-80
2024/01/13 09:39:10;;;;;;;0.52;0.52;;;;;;;;;;5028424;28;20104;-79
2024/01/13 09:41:36;;;;;;;3.13;0.98;;;;;;;;;;5030147;28;20037;-79
2024/01/13 09:44:11;;;;;;;2.90;2.70;;;;;;;;;;5029807;28;20497;-79
2024/01/13 09:46:36;;;;;;;10.90;1.85;;;;;;;;;;5028319;28;20354;-79
2024/01/13 09:49:08;;;;;;;0.73;0.73;;;;;;;;;;5023195;28;20057;-79
2024/01/13 09:51:34;;;;;;;3.60;1.58;;;;;;;;;;5026231;28;20101;-79
2024/01/13 09:54:11;;;;;;;1.55;1.20;;;;;;;;;;5027952;28;20100;-78
2024/01/13 09:56:44;;;;;;;1.20;0.90;;;;;;;;;;5032394;28;20430;-79
2024/01/13 09:59:10;;;;;;;3.13;2.65;;;;;;;;;;5026909;28;20496;-82
2024/01/13 10:01:36;;;;;;;1.75;0.80;;;;;;;;;;5029506;28;20048;-82
2024/01/13 10:04:02;;;;;;;1.60;1.45;;;;;;;;;;5025967;28;20117;-81
2024/01/13 10:06:30;;;;;;;0.32;0.32;;;;;;;;;;5027688;28;20148;-79
2024/01/13 10:08:56;;;;;;;4.57;1.87;;;;;;;;;;5029530;28;20029;-80
2024/01/13 10:11:21;;;;;;;0.70;0.70;;;;;;;;;;5028972;28;20484;-81
2024/01/13 10:14:07;;;;;;;2.13;1.92;;;;;;;;;;5026332;28;20044;-81
2024/01/13 10:16:34;;;;;;;3.25;2.47;;;;;;;;;;5029949;28;20036;-80
2024/01/13 10:19:01;;;;;;;0.93;0.93;;;;;;;;;;5030348;28;20021;-79
2024/01/13 10:21:27;;;;;;;0.88;0.70;;;;;;;;;;5026764;28;20041;-80
2024/01/13 10:23:57;;;;;;;1.42;1.33;;;;;;;;;;5023476;28;20479;-80
2024/01/13 10:26:27;;;;;;;1.88;0.90;;;;;;;;;;5029935;28;20546;-80
2024/01/13 10:28:54;;;;;;;1.05;1.05;;;;;;;;;;5029876;28;20041;-80
2024/01/13 10:31:20;;;;;;;1.48;1.38;;;;;;;;;;5027227;28;20021;-79
2024/01/13 10:33:49;;;;;;;1.10;0.93;;;;;;;;;;5027356;28;20037;-81
2024/01/13 10:36:16;;;;;;;1.45;0.82;;;;;;;;;;5030285;28;20034;-79
2024/01/13 10:38:43;;;;;;;0.65;0.65;;;;;;;;;;5028018;28;20067;-79
2024/01/13 10:41:10;;;;;;;1.20;1.15;;;;;;;;;;5029267;28;20046;-78
2024/01/13 10:43:41;;;;;;;7.07;3.88;;;;;;;;;;5028979;28;20037;-80
2024/01/13 10:46:11;;;;;;;1.20;0.98;;;;;;;;;;5025826;28;20030;-79
2024/01/13 10:48:47;;;;;;;0.82;0.82;;;;;;;;;;5027567;28;20466;-81
2024/01/13 10:51:15;;;;;;;1.33;1.30;;;;;;;;;;5026201;28;20017;-80
2024/01/13 10:53:43;;;;;;;0.82;0.68;;;;;;;;;;5028442;28;20037;-80
2024/01/13 10:56:08;;;;;;;3.72;2.90;;;;;;;;;;5023248;28;20040;-80
2024/01/13 10:58:35;;;;;;;1.10;1.02;;;;;;;;;;5029624;28;20029;-79
2024/01/13 11:01:01;;;;;;;0.70;0.70;;;;;;;;;;5027873;28;20025;-79
2024/01/13 11:03:27;;;;;;;0.45;0.45;;;;;;;;;;5029678;28;20026;-79
2024/01/13 11:05:53;;;;;;;1.15;0.80;;;;;;;;;;5024368;28;20037;-79
2024/01/13 11:08:20;;;;;;;0.90;0.70;;;;;;;;;;5028256;28;20083;-82
2024/01/13 11:10:49;;;;;;;3.40;1.95;;;;;;;;;;5027195;28;20032;-78
2024/01/13 11:13:27;;;;;;;1.27;1.27;;;;;;;;;;5025834;28;20033;-80
2024/01/13 11:16:04;;;;;;;0.30;0.30;;;;;;;;;;5028816;28;20795;-78
2024/01/13 11:18:40;;;;;;;1.95;1.52;;;;;;;;;;5029398;28;20112;-79
2024/01/13 11:21:07;;;;;;;1.35;1.25;;;;;;;;;;5029912;28;20461;-79
2024/01/13 11:23:46;;;;;;;0.70;0.70;;;;;;;;;;5024298;28;20036;-78
2024/01/13 11:26:15;;;;;;;2.97;1.70;;;;;;;;;;5029501;28;20048;-80
2024/01/13 11:28:52;;;;;;;1.42;1.27;;;;;;;;;;5027415;28;20132;-80
2024/01/13 11:31:38;;;;;;;0.73;0.73;;;;;;;;;;5028470;28;20031;-79
2024/01/13 11:34:11;;;;;;;0.75;0.75;;;;;;;;;;5027691;28;20429;-80
2024/01/13 11:36:41;;;;;;;1.85;1.13;;;;;;;;;;5026667;28;20148;-80
2024/01/13 11:39:08;;;;;;;1.17;1.10;;;;;;;;;;5027869;28;20087;-80
2024/01/13 11:41:56;;;;;;;1.90;1.80;;;;;;;;;;5024083;28;20072;-80
2024/01/13 11:44:23;;;;;;;2.45;1.52;;;;;;;;;;5022970;28;20109;-81
2024/01/13 11:47:06;;;;;;;2.50;1.45;;;;;;;;;;5029075;28;20037;-82
2024/01/13 11:49:34;;;;;;;1.25;1.15;;;;;;;;;;5025106;28;20095;-82
2024/01/13 11:52:04;;;;;;;2.10;1.25;;;;;;;;;;5028572;28;20033;-82
2024/01/13 11:54:31;;;;;;;1.00;0.77;;;;;;;;;;5027864;28;20091;-80
2024/01/13 11:56:58;;;;;;;3.53;1.70;;;;;;;;;;5028386;28;20095;-79
2024/01/13 11:59:24;;;;;;;1.70;0.77;;;;;;;;;;5027662;28;20033;-80
2024/01/13 12:01:52;;;;;;;0.50;0.50;;;;;;;;;;5026581;28;20045;-81
2024/01/13 12:04:17;;;;;;;1.38;1.27;;;;;;;;;;5027980;28;20390;-79
2024/01/13 12:06:44;;;;;;;0.30;0.30;;;;;;;;;;5026057;28;20026;-80
2024/01/13 12:09:13;;;;;;;1.67;1.52;;;;;;;;;;5028629;28;20017;-81
2024/01/13 12:11:49;;;;;;;3.10;2.65;;;;;;;;;;5025815;28;20373;-81
2024/01/13 12:14:14;;;;;;;0.70;0.65;;;;;;;;;;5026340;28;20409;-79
2024/01/13 12:16:40;;;;;;;1.77;1.67;;;;;;;;;;5027534;28;20041;-80
2024/01/13 12:19:05;;;;;;;2.45;2.08;;;;;;;;;;5024039;28;20033;-82
2024/01/13 12:21:35;;;;;;;0.88;0.70;;;;;;;;;;5027514;28;20458;-83
2024/01/13 12:24:00;;;;;;;0.70;0.70;;;;;;;;;;5020747;28;20121;-81
2024/01/13 12:26:29;;;;;;;3.60;1.25;;;;;;;;;;5025356;28;20101;-81
2024/01/13 12:28:56;;;;;;;5.80;3.47;;;;;;;;;;5028392;28;20025;-81
2024/01/13 12:31:22;;;;;;;2.42;1.45;;;;;;;;;;5025687;28;20276;-82
2024/01/13 12:33:48;;;;;;;4.22;3.88;;;;;;;;;;5028095;28;20484;-81
2024/01/13 12:36:13;;;;;;;1.73;1.63;;;;;;;;;;5024490;28;20396;-83
2024/01/13 12:38:39;;;;;;;2.20;1.48;;;;;;;;;;5031105;28;20044;-81
2024/01/13 12:41:08;;;;;;;2.28;1.05;;;;;;;;;;5029519;28;20503;-79
2024/01/13 12:43:34;;;;;;;2.10;2.00;;;;;;;;;;5032770;28;20033;-78
2024/01/13 12:45:59;;;;;;;4.55;2.08;;;;;;;;;;5029539;28;20500;-79
2024/01/13 12:48:25;;;;;;;1.73;1.38;;;;;;;;;;5031771;28;20029;-78
2024/01/13 12:50:51;;;;;;;2.10;1.63;;;;;;;;;;5029494;28;20104;-78
2024/01/13 12:53:25;;;;;;;0.60;0.60;;;;;;;;;;5029693;28;20029;-79
2024/01/13 12:55:51;;;;;;;1.33;1.23;;;;;;;;;;5029626;28;20099;-79
2024/01/13 12:58:16;;;;;;;0.93;0.93;;;;;;;;;;5031502;28;20059;-78
2024/01/13 13:00:43;;;;;;;1.60;1.50;;;;;;;;;;5024632;28;20107;-80
2024/01/13 13:03:09;;;;;;;0.60;0.60;;;;;;;;;;5029877;28;20029;-79
2024/01/13 13:05:34;;;;;;;4.03;1.95;;;;;;;;;;5029880;28;20025;-78
2024/01/13 13:07:59;;;;;;;3.70;2.40;;;;;;;;;;5031503;28;20056;-78
2024/01/13 13:10:25;;;;;;;0.80;0.80;;;;;;;;;;5025350;28;20018;-78
2024/01/13 13:12:50;;;;;;;0.95;0.95;;;;;;;;;;5019777;28;20146;-79
2024/01/13 13:15:16;;;;;;;1.90;1.80;;;;;;;;;;5028693;28;20052;-82
2024/01/13 13:17:42;;;;;;;2.33;1.90;;;;;;;;;;5019492;28;20029;-77
2024/01/13 13:20:08;;;;;;;1.30;1.30;;;;;;;;;;5012727;28;20076;-80
2024/01/13 13:22:37;;;;;;;1.13;1.10;;;;;;;;;;5014460;28;20458;-77
2024/01/13 13:25:06;;;;;;;1.00;1.00;;;;;;;;;;5022038;28;20026;-78
2024/01/13 13:27:33;;;;;;;1.98;1.60;;;;;;;;;;5027849;28;20364;-76
2024/01/13 13:29:59;;;;;;;0.80;0.80;;;;;;;;;;5024896;28;20032;-78
2024/01/13 13:32:24;;;;;;;0.47;0.47;;;;;;;;;;5025564;28;20025;-76
2024/01/13 13:34:50;;;;;;;1.67;1.55;;;;;;;;;;5026235;28;20030;-77
2024/01/13 13:37:15;;;;;;;1.30;1.15;;;;;;;;;;5027353;28;20033;-77
2024/01/13 13:39:41;;;;;;;1.70;1.52;;;;;;;;;;5027850;28;20084;-75
2024/01/13 13:42:07;;;;;;;1.83;1.73;;;;;;;;;;5027480;28;20041;-77
2024/01/13 13:44:34;;;;;;;0.93;0.88;;;;;;;;;;5027521;28;20045;-79
2024/01/13 13:47:01;;;;;;;1.08;1.08;;;;;;;;;;5025456;28;20029;-79
2024/01/13 13:49:30;;;;;;;3.88;1.98;;;;;;;;;;5028840;28;20044;-80
2024/01/13 13:51:57;;;;;;;2.80;1.92;;;;;;;;;;5028476;28;20033;-78
2024/01/13 13:54:23;;;;;;;2.00;1.90;;;;;;;;;;5028037;28;20037;-77
2024/01/13 13:56:48;;;;;;;3.97;2.63;;;;;;;;;;5029765;28;20850;-77
2024/01/13 13:59:15;;;;;;;0.93;0.93;;;;;;;;;;5026461;28;20037;-78
2024/01/13 14:01:41;;;;;;;1.85;1.65;;;;;;;;;;5023019;28;20477;-79
2024/01/13 14:04:08;;;;;;;2.38;2.17;;;;;;;;;;5027069;28;20022;-78
2024/01/13 14:06:34;;;;;;;3.85;3.40;;;;;;;;;;5030817;28;20067;-79
2024/01/13 14:09:00;;;;;;;2.35;2.25;;;;;;;;;;5028030;28;20033;-78
2024/01/13 14:11:25;;;;;;;3.28;2.72;;;;;;;;;;5030240;28;20047;-78
2024/01/13 14:13:50;;;;;;;3.38;2.65;;;;;;;;;;5027681;28;20057;-76
2024/01/13 14:16:16;;;;;;;6.03;3.97;;;;;;;;;;5028553;28;20026;-77
2024/01/13 14:18:47;;;;;;;5.20;2.30;;;;;;;;;;5023337;28;20033;-78
2024/01/13 14:21:14;;;;;;;1.25;1.25;;;;;;;;;;5029766;28;20051;-80
2024/01/13 14:23:39;;;;;;;1.98;1.88;;;;;;;;;;5027068;28;20409;-81
2024/01/13 14:26:05;;;;;;;6.43;0.88;;;;;;;;;;5029719;28;20029;-78
2024/01/13 14:28:30;;;;;;;1.10;1.10;;;;;;;;;;5028087;28;20036;-79
2024/01/13 14:30:57;;;;;;;5.53;4.80;;;;;;;;;;5026099;28;20115;-78
2024/01/13 14:33:22;;;;;;;0.68;0.68;;;;;;;;;;5026285;28;20040;-79
2024/01/13 14:35:48;;;;;;;1.30;1.20;;;;;;;;;;5024321;28;20026;-79
2024/01/13 14:38:14;;;;;;;6.07;2.90;;;;;;;;;;5028227;28;20104;-78